sensor_id;sensor_type;location;lat;lon;timestamp;temperature;humidity
33988;DHT22;37428;53.580;-1.666;2022-10-13T00:00:23;10.60;88.10
33988;DHT22;37428;53.580;-1.666;2022-10-13T00:03:25;10.60;88.60
33988;DHT22;37428;53.580;-1.666;2022-10-13T00:06:27;10.50;88.00
33988;DHT22;37428;53.580;-1.666;2022-10-13T00:09:31;10.50;88.10
33988;DHT22;37428;53.580;-1.666;2022-10-13T00:12:36;10.50;88.10
33988;DHT22;37428;53.580;-1.666;2022-10-13T00:15:41;10.50;88.10
33988;DHT22;37428;53.580;-1.666;2022-10-13T00:18:43;10.50;88.10
33988;DHT22;37428;53.580;-1.666;2022-10-13T00:21:51;10.40;88.20
33988;DHT22;37428;53.580;-1.666;2022-10-13T00:24:53;10.40;87.80
33988;DHT22;37428;53.580;-1.666;2022-10-13T00:27:59;10.40;87.50
33988;DHT22;37428;53.580;-1.666;2022-10-13T00:31:01;10.40;87.20
33988;DHT22;37428;53.580;-1.666;2022-10-13T00:34:09;10.40;87.10
33988;DHT22;37428;53.580;-1.666;2022-10-13T00:37:11;10.30;86.90
33988;DHT22;37428;53.580;-1.666;2022-10-13T00:40:13;10.20;86.30
33988;DHT22;37428;53.580;-1.666;2022-10-13T00:43:23;10.20;86.30
33988;DHT22;37428;53.580;-1.666;2022-10-13T00:46:29;10.10;86.60
33988;DHT22;37428;53.580;-1.666;2022-10-13T00:49:32;10.10;86.70
33988;DHT22;37428;53.580;-1.666;2022-10-13T00:52:34;10.10;86.30
33988;DHT22;37428;53.580;-1.666;2022-10-13T00:55:38;10.00;86.00
33988;DHT22;37428;53.580;-1.666;2022-10-13T00:58:46;10.00;86.00
33988;DHT22;37428;53.580;-1.666;2022-10-13T01:01:49;10.00;85.90
33988;DHT22;37428;53.580;-1.666;2022-10-13T01:04:55;10.00;86.10
33988;DHT22;37428;53.580;-1.666;2022-10-13T01:07:58;10.00;85.60
33988;DHT22;37428;53.580;-1.666;2022-10-13T01:11:19;10.00;84.60
33988;DHT22;37428;53.580;-1.666;2022-10-13T01:14:43;10.00;83.90
33988;DHT22;37428;53.580;-1.666;2022-10-13T01:18:02;10.00;83.70
33988;DHT22;37428;53.580;-1.666;2022-10-13T01:24:43;10.00;83.50
33988;DHT22;37428;53.580;-1.666;2022-10-13T01:31:22;9.80;83.20
33988;DHT22;37428;53.580;-1.666;2022-10-13T01:34:33;9.80;83.70
33988;DHT22;37428;53.580;-1.666;2022-10-13T01:37:43;9.80;84.70
33988;DHT22;37428;53.580;-1.666;2022-10-13T01:40:51;9.80;85.10
33988;DHT22;37428;53.580;-1.666;2022-10-13T01:44:01;9.70;85.40
33988;DHT22;37428;53.580;-1.666;2022-10-13T01:47:08;9.70;86.20
33988;DHT22;37428;53.580;-1.666;2022-10-13T01:50:13;9.80;86.30
33988;DHT22;37428;53.580;-1.666;2022-10-13T01:53:17;9.80;86.10
33988;DHT22;37428;53.580;-1.666;2022-10-13T01:56:20;9.80;85.40
33988;DHT22;37428;53.580;-1.666;2022-10-13T01:59:23;9.90;85.10
33988;DHT22;37428;53.580;-1.666;2022-10-13T02:02:33;9.90;84.80
33988;DHT22;37428;53.580;-1.666;2022-10-13T02:05:44;9.90;84.40
33988;DHT22;37428;53.580;-1.666;2022-10-13T02:08:57;9.90;84.30
33988;DHT22;37428;53.580;-1.666;2022-10-13T02:12:07;9.90;84.20
33988;DHT22;37428;53.580;-1.666;2022-10-13T02:15:15;10.00;83.80
33988;DHT22;37428;53.580;-1.666;2022-10-13T02:18:22;10.00;83.70
33988;DHT22;37428;53.580;-1.666;2022-10-13T02:21:26;10.00;83.70
33988;DHT22;37428;53.580;-1.666;2022-10-13T02:24:28;10.00;83.60
33988;DHT22;37428;53.580;-1.666;2022-10-13T02:27:31;10.10;82.90
33988;DHT22;37428;53.580;-1.666;2022-10-13T02:30:33;10.10;83.70
33988;DHT22;37428;53.580;-1.666;2022-10-13T02:33:37;10.10;83.50
33988;DHT22;37428;53.580;-1.666;2022-10-13T02:36:39;10.10;83.50
33988;DHT22;37428;53.580;-1.666;2022-10-13T02:39:42;10.10;83.70
33988;DHT22;37428;53.580;-1.666;2022-10-13T02:42:44;10.10;83.00
33988;DHT22;37428;53.580;-1.666;2022-10-13T02:45:46;10.10;83.30
33988;DHT22;37428;53.580;-1.666;2022-10-13T02:48:50;10.00;83.10
33988;DHT22;37428;53.580;-1.666;2022-10-13T02:51:52;10.00;83.30
33988;DHT22;37428;53.580;-1.666;2022-10-13T02:54:54;10.10;82.90
33988;DHT22;37428;53.580;-1.666;2022-10-13T02:57:56;10.10;82.70
33988;DHT22;37428;53.580;-1.666;2022-10-13T03:01:04;10.10;82.90
33988;DHT22;37428;53.580;-1.666;2022-10-13T03:04:08;10.00;82.00
33988;DHT22;37428;53.580;-1.666;2022-10-13T03:07:10;10.00;83.00
33988;DHT22;37428;53.580;-1.666;2022-10-13T03:10:12;10.00;82.60
33988;DHT22;37428;53.580;-1.666;2022-10-13T03:13:14;10.00;82.80
33988;DHT22;37428;53.580;-1.666;2022-10-13T03:16:17;10.00;83.10
33988;DHT22;37428;53.580;-1.666;2022-10-13T03:19:20;9.90;83.10
33988;DHT22;37428;53.580;-1.666;2022-10-13T03:22:23;9.90;83.70
33988;DHT22;37428;53.580;-1.666;2022-10-13T03:25:25;9.90;83.40
33988;DHT22;37428;53.580;-1.666;2022-10-13T03:28:27;9.90;83.60
33988;DHT22;37428;53.580;-1.666;2022-10-13T03:31:29;9.90;83.80
33988;DHT22;37428;53.580;-1.666;2022-10-13T03:34:33;9.90;83.90
33988;DHT22;37428;53.580;-1.666;2022-10-13T03:37:35;9.90;84.00
33988;DHT22;37428;53.580;-1.666;2022-10-13T03:40:37;9.90;83.70
33988;DHT22;37428;53.580;-1.666;2022-10-13T03:43:40;9.90;82.90
33988;DHT22;37428;53.580;-1.666;2022-10-13T03:46:42;9.90;82.30
33988;DHT22;37428;53.580;-1.666;2022-10-13T03:49:46;9.90;82.90
33988;DHT22;37428;53.580;-1.666;2022-10-13T03:52:48;9.90;82.50
33988;DHT22;37428;53.580;-1.666;2022-10-13T03:55:50;10.00;82.30
33988;DHT22;37428;53.580;-1.666;2022-10-13T03:58:55;10.00;82.30
33988;DHT22;37428;53.580;-1.666;2022-10-13T04:01:57;10.00;81.80
33988;DHT22;37428;53.580;-1.666;2022-10-13T04:05:01;10.00;82.00
33988;DHT22;37428;53.580;-1.666;2022-10-13T04:08:03;10.00;82.10
33988;DHT22;37428;53.580;-1.666;2022-10-13T04:11:08;10.00;82.20
33988;DHT22;37428;53.580;-1.666;2022-10-13T04:14:11;10.00;81.80
33988;DHT22;37428;53.580;-1.666;2022-10-13T04:17:13;10.00;82.00
33988;DHT22;37428;53.580;-1.666;2022-10-13T04:20:17;10.00;81.70
33988;DHT22;37428;53.580;-1.666;2022-10-13T04:23:19;9.90;81.80
33988;DHT22;37428;53.580;-1.666;2022-10-13T04:26:22;9.90;81.90
33988;DHT22;37428;53.580;-1.666;2022-10-13T04:29:24;9.90;82.30
33988;DHT22;37428;53.580;-1.666;2022-10-13T04:32:27;9.90;82.10
33988;DHT22;37428;53.580;-1.666;2022-10-13T04:35:30;9.90;82.10
33988;DHT22;37428;53.580;-1.666;2022-10-13T04:38:32;9.90;81.80
33988;DHT22;37428;53.580;-1.666;2022-10-13T04:41:34;9.90;82.10
33988;DHT22;37428;53.580;-1.666;2022-10-13T04:44:36;9.90;81.20
33988;DHT22;37428;53.580;-1.666;2022-10-13T04:47:39;9.80;81.10
33988;DHT22;37428;53.580;-1.666;2022-10-13T04:50:42;9.80;81.00
33988;DHT22;37428;53.580;-1.666;2022-10-13T04:53:44;9.80;80.70
33988;DHT22;37428;53.580;-1.666;2022-10-13T04:56:47;9.80;80.70
33988;DHT22;37428;53.580;-1.666;2022-10-13T04:59:49;9.80;80.40
33988;DHT22;37428;53.580;-1.666;2022-10-13T05:02:51;9.80;80.70
33988;DHT22;37428;53.580;-1.666;2022-10-13T05:05:55;9.70;80.60
33988;DHT22;37428;53.580;-1.666;2022-10-13T05:08:57;9.70;80.90
33988;DHT22;37428;53.580;-1.666;2022-10-13T05:12:00;9.70;80.40
33988;DHT22;37428;53.580;-1.666;2022-10-13T05:15:02;9.60;80.90
33988;DHT22;37428;53.580;-1.666;2022-10-13T05:18:04;9.60;80.50
33988;DHT22;37428;53.580;-1.666;2022-10-13T05:21:10;9.60;80.30
33988;DHT22;37428;53.580;-1.666;2022-10-13T05:24:12;9.60;79.90
33988;DHT22;37428;53.580;-1.666;2022-10-13T05:27:15;9.50;80.30
33988;DHT22;37428;53.580;-1.666;2022-10-13T05:30:17;9.50;80.00
33988;DHT22;37428;53.580;-1.666;2022-10-13T05:33:20;9.50;80.20
33988;DHT22;37428;53.580;-1.666;2022-10-13T05:36:24;9.50;80.50
33988;DHT22;37428;53.580;-1.666;2022-10-13T05:39:27;9.40;80.30
33988;DHT22;37428;53.580;-1.666;2022-10-13T05:42:29;9.40;81.40
33988;DHT22;37428;53.580;-1.666;2022-10-13T05:45:32;9.30;81.60
33988;DHT22;37428;53.580;-1.666;2022-10-13T05:48:34;9.40;82.00
33988;DHT22;37428;53.580;-1.666;2022-10-13T05:51:40;9.30;82.40
33988;DHT22;37428;53.580;-1.666;2022-10-13T05:54:44;9.30;82.40
33988;DHT22;37428;53.580;-1.666;2022-10-13T05:57:50;9.30;82.20
33988;DHT22;37428;53.580;-1.666;2022-10-13T06:00:52;9.20;82.00
33988;DHT22;37428;53.580;-1.666;2022-10-13T06:03:58;9.20;82.10
33988;DHT22;37428;53.580;-1.666;2022-10-13T06:07:04;9.10;81.70
33988;DHT22;37428;53.580;-1.666;2022-10-13T06:10:07;9.00;82.00
33988;DHT22;37428;53.580;-1.666;2022-10-13T06:13:09;9.00;82.00
33988;DHT22;37428;53.580;-1.666;2022-10-13T06:16:11;8.90;82.20
33988;DHT22;37428;53.580;-1.666;2022-10-13T06:19:15;8.80;81.70
33988;DHT22;37428;53.580;-1.666;2022-10-13T06:22:18;8.70;81.40
33988;DHT22;37428;53.580;-1.666;2022-10-13T06:25:21;8.60;81.50
33988;DHT22;37428;53.580;-1.666;2022-10-13T06:28:23;8.50;82.00
33988;DHT22;37428;53.580;-1.666;2022-10-13T06:31:26;8.40;82.30
33988;DHT22;37428;53.580;-1.666;2022-10-13T06:34:28;8.40;83.40
33988;DHT22;37428;53.580;-1.666;2022-10-13T06:37:31;8.30;82.90
33988;DHT22;37428;53.580;-1.666;2022-10-13T06:40:34;8.30;84.00
33988;DHT22;37428;53.580;-1.666;2022-10-13T06:43:36;8.30;84.20
33988;DHT22;37428;53.580;-1.666;2022-10-13T06:46:38;8.30;84.30
33988;DHT22;37428;53.580;-1.666;2022-10-13T06:49:40;8.30;84.20
33988;DHT22;37428;53.580;-1.666;2022-10-13T06:52:43;8.30;83.70
33988;DHT22;37428;53.580;-1.666;2022-10-13T06:55:46;8.30;83.30
33988;DHT22;37428;53.580;-1.666;2022-10-13T06:58:48;8.30;83.50
33988;DHT22;37428;53.580;-1.666;2022-10-13T07:01:50;8.20;83.20
33988;DHT22;37428;53.580;-1.666;2022-10-13T07:04:53;8.30;83.60
33988;DHT22;37428;53.580;-1.666;2022-10-13T07:07:57;8.30;84.00
33988;DHT22;37428;53.580;-1.666;2022-10-13T07:11:05;8.40;83.80
33988;DHT22;37428;53.580;-1.666;2022-10-13T07:14:07;8.40;83.30
33988;DHT22;37428;53.580;-1.666;2022-10-13T07:17:09;8.40;82.80
33988;DHT22;37428;53.580;-1.666;2022-10-13T07:20:11;8.50;82.30
33988;DHT22;37428;53.580;-1.666;2022-10-13T07:23:14;8.50;81.80
33988;DHT22;37428;53.580;-1.666;2022-10-13T07:26:17;8.60;82.00
33988;DHT22;37428;53.580;-1.666;2022-10-13T07:29:19;8.60;82.40
33988;DHT22;37428;53.580;-1.666;2022-10-13T07:32:21;8.60;82.10
33988;DHT22;37428;53.580;-1.666;2022-10-13T07:35:23;8.60;81.70
33988;DHT22;37428;53.580;-1.666;2022-10-13T07:38:27;8.60;81.90
33988;DHT22;37428;53.580;-1.666;2022-10-13T07:41:29;8.70;82.10
33988;DHT22;37428;53.580;-1.666;2022-10-13T07:44:31;8.70;82.00
33988;DHT22;37428;53.580;-1.666;2022-10-13T07:47:33;8.70;81.80
33988;DHT22;37428;53.580;-1.666;2022-10-13T07:50:35;8.70;81.60
33988;DHT22;37428;53.580;-1.666;2022-10-13T07:53:40;8.80;81.40
33988;DHT22;37428;53.580;-1.666;2022-10-13T07:56:43;8.80;80.80
33988;DHT22;37428;53.580;-1.666;2022-10-13T07:59:45;8.90;81.60
33988;DHT22;37428;53.580;-1.666;2022-10-13T08:02:48;9.20;81.60
33988;DHT22;37428;53.580;-1.666;2022-10-13T08:05:51;9.50;81.00
33988;DHT22;37428;53.580;-1.666;2022-10-13T08:08:54;9.80;80.10
33988;DHT22;37428;53.580;-1.666;2022-10-13T08:11:57;10.20;78.10
33988;DHT22;37428;53.580;-1.666;2022-10-13T08:14:59;10.40;75.70
33988;DHT22;37428;53.580;-1.666;2022-10-13T08:18:01;10.60;75.30
33988;DHT22;37428;53.580;-1.666;2022-10-13T08:21:04;10.80;73.90
33988;DHT22;37428;53.580;-1.666;2022-10-13T08:24:10;11.00;73.20
33988;DHT22;37428;53.580;-1.666;2022-10-13T08:27:18;11.10;73.00
33988;DHT22;37428;53.580;-1.666;2022-10-13T08:30:21;11.20;72.80
33988;DHT22;37428;53.580;-1.666;2022-10-13T08:33:23;11.30;71.70
33988;DHT22;37428;53.580;-1.666;2022-10-13T08:36:26;11.40;69.70
33988;DHT22;37428;53.580;-1.666;2022-10-13T08:39:29;11.40;69.10
33988;DHT22;37428;53.580;-1.666;2022-10-13T08:42:32;11.50;67.30
33988;DHT22;37428;53.580;-1.666;2022-10-13T08:45:34;11.60;69.10
33988;DHT22;37428;53.580;-1.666;2022-10-13T08:48:39;11.80;67.00
33988;DHT22;37428;53.580;-1.666;2022-10-13T08:51:42;11.90;68.70
33988;DHT22;37428;53.580;-1.666;2022-10-13T08:54:46;12.10;64.50
33988;DHT22;37428;53.580;-1.666;2022-10-13T08:57:48;12.10;65.00
33988;DHT22;37428;53.580;-1.666;2022-10-13T09:00:59;12.30;64.00
33988;DHT22;37428;53.580;-1.666;2022-10-13T09:04:14;12.60;63.10
33988;DHT22;37428;53.580;-1.666;2022-10-13T09:07:20;12.80;62.00
33988;DHT22;37428;53.580;-1.666;2022-10-13T09:10:25;12.90;57.80
33988;DHT22;37428;53.580;-1.666;2022-10-13T09:13:27;13.10;57.20
33988;DHT22;37428;53.580;-1.666;2022-10-13T09:16:33;13.30;54.50
33988;DHT22;37428;53.580;-1.666;2022-10-13T09:19:35;13.50;53.40
33988;DHT22;37428;53.580;-1.666;2022-10-13T09:22:39;13.80;55.80
33988;DHT22;37428;53.580;-1.666;2022-10-13T09:25:44;13.90;53.40
33988;DHT22;37428;53.580;-1.666;2022-10-13T09:28:48;14.10;54.00
33988;DHT22;37428;53.580;-1.666;2022-10-13T09:31:52;14.10;52.30
33988;DHT22;37428;53.580;-1.666;2022-10-13T09:35:16;14.30;50.10
33988;DHT22;37428;53.580;-1.666;2022-10-13T09:38:22;14.50;50.40
33988;DHT22;37428;53.580;-1.666;2022-10-13T09:41:27;14.70;49.50
33988;DHT22;37428;53.580;-1.666;2022-10-13T09:44:30;14.50;48.90
33988;DHT22;37428;53.580;-1.666;2022-10-13T09:47:32;14.70;47.60
33988;DHT22;37428;53.580;-1.666;2022-10-13T09:50:35;14.80;47.30
33988;DHT22;37428;53.580;-1.666;2022-10-13T09:53:38;14.90;47.10
33988;DHT22;37428;53.580;-1.666;2022-10-13T09:56:46;15.10;47.00
33988;DHT22;37428;53.580;-1.666;2022-10-13T09:59:51;15.10;45.40
33988;DHT22;37428;53.580;-1.666;2022-10-13T10:02:57;15.10;45.80
33988;DHT22;37428;53.580;-1.666;2022-10-13T10:06:03;15.00;44.50
33988;DHT22;37428;53.580;-1.666;2022-10-13T10:09:18;15.00;45.00
33988;DHT22;37428;53.580;-1.666;2022-10-13T10:12:27;15.20;45.30
33988;DHT22;37428;53.580;-1.666;2022-10-13T10:15:37;15.40;45.60
33988;DHT22;37428;53.580;-1.666;2022-10-13T10:18:47;15.40;42.00
33988;DHT22;37428;53.580;-1.666;2022-10-13T10:21:55;15.40;43.80
33988;DHT22;37428;53.580;-1.666;2022-10-13T10:25:17;15.50;44.80
33988;DHT22;37428;53.580;-1.666;2022-10-13T10:28:41;15.70;44.40
33988;DHT22;37428;53.580;-1.666;2022-10-13T10:32:03;15.80;43.60
33988;DHT22;37428;53.580;-1.666;2022-10-13T10:35:11;15.90;44.00
33988;DHT22;37428;53.580;-1.666;2022-10-13T10:38:22;15.90;43.60
33988;DHT22;37428;53.580;-1.666;2022-10-13T10:41:37;16.00;43.00
33988;DHT22;37428;53.580;-1.666;2022-10-13T10:44:46;16.20;42.90
33988;DHT22;37428;53.580;-1.666;2022-10-13T10:47:52;16.30;43.30
33988;DHT22;37428;53.580;-1.666;2022-10-13T10:50:55;16.40;44.50
33988;DHT22;37428;53.580;-1.666;2022-10-13T10:54:11;16.70;42.20
33988;DHT22;37428;53.580;-1.666;2022-10-13T10:57:22;16.70;41.10
33988;DHT22;37428;53.580;-1.666;2022-10-13T11:00:34;16.70;40.90
33988;DHT22;37428;53.580;-1.666;2022-10-13T11:03:45;16.80;41.90
33988;DHT22;37428;53.580;-1.666;2022-10-13T11:06:48;17.00;41.60
33988;DHT22;37428;53.580;-1.666;2022-10-13T11:13:18;17.20;40.40
33988;DHT22;37428;53.580;-1.666;2022-10-13T11:16:31;17.10;41.00
33988;DHT22;37428;53.580;-1.666;2022-10-13T11:19:34;17.20;41.60
33988;DHT22;37428;53.580;-1.666;2022-10-13T11:22:37;17.10;40.30
33988;DHT22;37428;53.580;-1.666;2022-10-13T11:25:39;17.40;40.70
33988;DHT22;37428;53.580;-1.666;2022-10-13T11:28:46;17.70;41.80
33988;DHT22;37428;53.580;-1.666;2022-10-13T11:31:53;18.00;40.50
33988;DHT22;37428;53.580;-1.666;2022-10-13T11:34:57;18.30;40.50
33988;DHT22;37428;53.580;-1.666;2022-10-13T11:38:09;18.40;40.40
33988;DHT22;37428;53.580;-1.666;2022-10-13T11:41:19;18.50;39.80
33988;DHT22;37428;53.580;-1.666;2022-10-13T11:44:29;18.50;39.80
33988;DHT22;37428;53.580;-1.666;2022-10-13T11:47:58;18.70;39.90
33988;DHT22;37428;53.580;-1.666;2022-10-13T11:51:14;18.70;38.80
33988;DHT22;37428;53.580;-1.666;2022-10-13T11:54:26;18.80;39.10
33988;DHT22;37428;53.580;-1.666;2022-10-13T11:57:31;18.70;39.10
33988;DHT22;37428;53.580;-1.666;2022-10-13T12:00:33;18.70;39.70
33988;DHT22;37428;53.580;-1.666;2022-10-13T12:03:38;18.90;39.00
33988;DHT22;37428;53.580;-1.666;2022-10-13T12:06:41;18.80;39.40
33988;DHT22;37428;53.580;-1.666;2022-10-13T12:09:50;18.80;39.50
33988;DHT22;37428;53.580;-1.666;2022-10-13T12:12:52;18.70;39.40
33988;DHT22;37428;53.580;-1.666;2022-10-13T12:16:00;18.60;39.10
33988;DHT22;37428;53.580;-1.666;2022-10-13T12:19:14;18.60;39.90
33988;DHT22;37428;53.580;-1.666;2022-10-13T12:22:18;18.60;40.40
33988;DHT22;37428;53.580;-1.666;2022-10-13T12:25:22;18.60;39.70
33988;DHT22;37428;53.580;-1.666;2022-10-13T12:28:27;18.50;39.80
33988;DHT22;37428;53.580;-1.666;2022-10-13T12:31:39;18.20;40.20
33988;DHT22;37428;53.580;-1.666;2022-10-13T12:34:43;17.90;41.00
33988;DHT22;37428;53.580;-1.666;2022-10-13T12:37:46;18.10;40.90
33988;DHT22;37428;53.580;-1.666;2022-10-13T12:40:50;18.20;41.30
33988;DHT22;37428;53.580;-1.666;2022-10-13T12:43:54;18.90;40.80
33988;DHT22;37428;53.580;-1.666;2022-10-13T12:46:58;19.20;40.20
33988;DHT22;37428;53.580;-1.666;2022-10-13T12:50:32;18.70;39.70
33988;DHT22;37428;53.580;-1.666;2022-10-13T12:53:37;18.60;40.60
33988;DHT22;37428;53.580;-1.666;2022-10-13T12:56:41;18.80;41.10
33988;DHT22;37428;53.580;-1.666;2022-10-13T12:59:44;19.00;40.30
33988;DHT22;37428;53.580;-1.666;2022-10-13T13:02:50;18.70;40.20
33988;DHT22;37428;53.580;-1.666;2022-10-13T13:06:09;18.90;40.10
33988;DHT22;37428;53.580;-1.666;2022-10-13T13:09:26;19.10;40.20
33988;DHT22;37428;53.580;-1.666;2022-10-13T13:12:28;19.50;38.50
33988;DHT22;37428;53.580;-1.666;2022-10-13T13:15:34;19.70;39.50
33988;DHT22;37428;53.580;-1.666;2022-10-13T13:18:37;19.90;38.90
33988;DHT22;37428;53.580;-1.666;2022-10-13T13:21:42;19.60;39.40
33988;DHT22;37428;53.580;-1.666;2022-10-13T13:24:45;19.10;39.60
33988;DHT22;37428;53.580;-1.666;2022-10-13T13:27:47;18.50;41.10
33988;DHT22;37428;53.580;-1.666;2022-10-13T13:30:49;18.20;42.10
33988;DHT22;37428;53.580;-1.666;2022-10-13T13:33:51;18.10;43.20
33988;DHT22;37428;53.580;-1.666;2022-10-13T13:36:55;18.60;42.10
33988;DHT22;37428;53.580;-1.666;2022-10-13T13:39:58;19.20;40.20
33988;DHT22;37428;53.580;-1.666;2022-10-13T13:43:00;19.40;40.30
33988;DHT22;37428;53.580;-1.666;2022-10-13T13:46:02;19.70;39.30
33988;DHT22;37428;53.580;-1.666;2022-10-13T13:49:05;19.70;38.80
33988;DHT22;37428;53.580;-1.666;2022-10-13T13:52:08;19.90;39.70
33988;DHT22;37428;53.580;-1.666;2022-10-13T13:55:10;19.50;38.30
33988;DHT22;37428;53.580;-1.666;2022-10-13T13:58:13;19.30;39.50
33988;DHT22;37428;53.580;-1.666;2022-10-13T14:01:15;19.20;39.50
33988;DHT22;37428;53.580;-1.666;2022-10-13T14:04:17;19.40;39.20
33988;DHT22;37428;53.580;-1.666;2022-10-13T14:07:20;19.40;40.10
33988;DHT22;37428;53.580;-1.666;2022-10-13T14:10:23;19.10;40.00
33988;DHT22;37428;53.580;-1.666;2022-10-13T14:13:25;19.00;40.10
33988;DHT22;37428;53.580;-1.666;2022-10-13T14:16:27;19.10;40.30
33988;DHT22;37428;53.580;-1.666;2022-10-13T14:19:30;19.40;40.30
33988;DHT22;37428;53.580;-1.666;2022-10-13T14:22:33;19.40;39.50
33988;DHT22;37428;53.580;-1.666;2022-10-13T14:25:37;19.50;39.40
33988;DHT22;37428;53.580;-1.666;2022-10-13T14:28:40;19.70;40.00
33988;DHT22;37428;53.580;-1.666;2022-10-13T14:31:42;19.80;39.90
33988;DHT22;37428;53.580;-1.666;2022-10-13T14:34:44;19.70;39.10
33988;DHT22;37428;53.580;-1.666;2022-10-13T14:37:48;19.50;39.70
33988;DHT22;37428;53.580;-1.666;2022-10-13T14:40:51;19.40;40.40
33988;DHT22;37428;53.580;-1.666;2022-10-13T14:43:53;19.20;40.60
33988;DHT22;37428;53.580;-1.666;2022-10-13T14:46:55;19.30;40.30
33988;DHT22;37428;53.580;-1.666;2022-10-13T14:49:57;19.20;41.10
33988;DHT22;37428;53.580;-1.666;2022-10-13T14:53:02;19.20;41.20
33988;DHT22;37428;53.580;-1.666;2022-10-13T14:56:14;19.00;41.50
33988;DHT22;37428;53.580;-1.666;2022-10-13T14:59:17;18.70;41.90
33988;DHT22;37428;53.580;-1.666;2022-10-13T15:02:19;18.50;42.80
33988;DHT22;37428;53.580;-1.666;2022-10-13T15:05:21;18.10;43.20
33988;DHT22;37428;53.580;-1.666;2022-10-13T15:08:24;17.80;43.90
33988;DHT22;37428;53.580;-1.666;2022-10-13T15:11:27;17.60;45.10
33988;DHT22;37428;53.580;-1.666;2022-10-13T15:14:29;17.60;44.50
33988;DHT22;37428;53.580;-1.666;2022-10-13T15:17:31;17.60;44.90
33988;DHT22;37428;53.580;-1.666;2022-10-13T15:20:33;17.60;45.20
33988;DHT22;37428;53.580;-1.666;2022-10-13T15:23:37;17.50;45.10
33988;DHT22;37428;53.580;-1.666;2022-10-13T15:26:39;17.60;45.40
33988;DHT22;37428;53.580;-1.666;2022-10-13T15:29:41;17.70;45.50
33988;DHT22;37428;53.580;-1.666;2022-10-13T15:32:44;17.60;45.20
33988;DHT22;37428;53.580;-1.666;2022-10-13T15:35:47;17.60;46.30
33988;DHT22;37428;53.580;-1.666;2022-10-13T15:38:51;17.70;45.60
33988;DHT22;37428;53.580;-1.666;2022-10-13T15:41:53;17.80;45.30
33988;DHT22;37428;53.580;-1.666;2022-10-13T15:44:55;17.90;45.40
33988;DHT22;37428;53.580;-1.666;2022-10-13T15:47:57;18.10;46.50
33988;DHT22;37428;53.580;-1.666;2022-10-13T15:50:59;18.00;46.20
33988;DHT22;37428;53.580;-1.666;2022-10-13T15:54:03;17.80;46.60
33988;DHT22;37428;53.580;-1.666;2022-10-13T15:57:05;17.60;47.10
33988;DHT22;37428;53.580;-1.666;2022-10-13T16:00:09;17.40;47.50
33988;DHT22;37428;53.580;-1.666;2022-10-13T16:03:16;17.30;47.30
33988;DHT22;37428;53.580;-1.666;2022-10-13T16:06:18;17.00;48.30
33988;DHT22;37428;53.580;-1.666;2022-10-13T16:09:23;16.80;48.50
33988;DHT22;37428;53.580;-1.666;2022-10-13T16:12:26;16.70;49.30
33988;DHT22;37428;53.580;-1.666;2022-10-13T16:15:28;16.50;50.10
33988;DHT22;37428;53.580;-1.666;2022-10-13T16:18:32;16.30;50.30
33988;DHT22;37428;53.580;-1.666;2022-10-13T16:21:35;16.20;50.70
33988;DHT22;37428;53.580;-1.666;2022-10-13T16:24:38;16.10;51.30
33988;DHT22;37428;53.580;-1.666;2022-10-13T16:27:40;16.00;51.90
33988;DHT22;37428;53.580;-1.666;2022-10-13T16:30:42;15.80;52.10
33988;DHT22;37428;53.580;-1.666;2022-10-13T16:33:45;15.70;52.90
33988;DHT22;37428;53.580;-1.666;2022-10-13T16:36:47;15.60;53.00
33988;DHT22;37428;53.580;-1.666;2022-10-13T16:39:50;15.50;54.90
33988;DHT22;37428;53.580;-1.666;2022-10-13T16:42:52;15.40;54.20
33988;DHT22;37428;53.580;-1.666;2022-10-13T16:45:55;15.20;55.10
33988;DHT22;37428;53.580;-1.666;2022-10-13T16:48:57;15.20;55.30
33988;DHT22;37428;53.580;-1.666;2022-10-13T16:51:59;15.10;56.10
33988;DHT22;37428;53.580;-1.666;2022-10-13T16:55:03;15.00;56.40
33988;DHT22;37428;53.580;-1.666;2022-10-13T16:58:05;15.00;57.30
33988;DHT22;37428;53.580;-1.666;2022-10-13T17:01:08;14.90;57.50
33988;DHT22;37428;53.580;-1.666;2022-10-13T17:04:10;14.80;58.00
33988;DHT22;37428;53.580;-1.666;2022-10-13T17:07:12;14.70;58.80
33988;DHT22;37428;53.580;-1.666;2022-10-13T17:10:16;14.50;59.10
33988;DHT22;37428;53.580;-1.666;2022-10-13T17:13:18;14.50;58.70
33988;DHT22;37428;53.580;-1.666;2022-10-13T17:16:20;14.40;59.20
33988;DHT22;37428;53.580;-1.666;2022-10-13T17:19:22;14.40;59.00
33988;DHT22;37428;53.580;-1.666;2022-10-13T17:22:24;14.30;59.40
33988;DHT22;37428;53.580;-1.666;2022-10-13T17:25:28;14.20;59.50
33988;DHT22;37428;53.580;-1.666;2022-10-13T17:28:30;14.10;59.90
33988;DHT22;37428;53.580;-1.666;2022-10-13T17:31:32;14.00;60.00
33988;DHT22;37428;53.580;-1.666;2022-10-13T17:34:34;13.90;60.30
33988;DHT22;37428;53.580;-1.666;2022-10-13T17:37:37;13.80;61.10
33988;DHT22;37428;53.580;-1.666;2022-10-13T17:40:40;13.80;61.10
33988;DHT22;37428;53.580;-1.666;2022-10-13T17:43:42;13.70;61.40
33988;DHT22;37428;53.580;-1.666;2022-10-13T17:46:45;13.50;61.40
33988;DHT22;37428;53.580;-1.666;2022-10-13T17:49:48;13.40;62.20
33988;DHT22;37428;53.580;-1.666;2022-10-13T17:52:50;13.20;62.40
33988;DHT22;37428;53.580;-1.666;2022-10-13T17:55:58;13.10;62.90
33988;DHT22;37428;53.580;-1.666;2022-10-13T17:59:00;13.00;63.50
33988;DHT22;37428;53.580;-1.666;2022-10-13T18:02:03;12.90;63.90
33988;DHT22;37428;53.580;-1.666;2022-10-13T18:05:05;12.80;64.30
33988;DHT22;37428;53.580;-1.666;2022-10-13T18:08:07;12.60;64.90
33988;DHT22;37428;53.580;-1.666;2022-10-13T18:11:13;12.50;65.30
33988;DHT22;37428;53.580;-1.666;2022-10-13T18:14:16;12.40;65.50
33988;DHT22;37428;53.580;-1.666;2022-10-13T18:17:18;12.40;65.90
33988;DHT22;37428;53.580;-1.666;2022-10-13T18:20:20;12.30;65.90
33988;DHT22;37428;53.580;-1.666;2022-10-13T18:23:22;12.30;66.20
33988;DHT22;37428;53.580;-1.666;2022-10-13T18:26:27;12.40;66.10
33988;DHT22;37428;53.580;-1.666;2022-10-13T18:29:31;12.40;65.90
33988;DHT22;37428;53.580;-1.666;2022-10-13T18:32:33;12.50;65.90
33988;DHT22;37428;53.580;-1.666;2022-10-13T18:35:35;12.50;65.80
33988;DHT22;37428;53.580;-1.666;2022-10-13T18:38:37;12.40;66.00
33988;DHT22;37428;53.580;-1.666;2022-10-13T18:41:41;12.40;66.00
33988;DHT22;37428;53.580;-1.666;2022-10-13T18:44:43;12.20;66.30
33988;DHT22;37428;53.580;-1.666;2022-10-13T18:47:49;12.20;66.40
33988;DHT22;37428;53.580;-1.666;2022-10-13T18:50:51;12.20;66.70
33988;DHT22;37428;53.580;-1.666;2022-10-13T18:53:53;12.10;66.80
33988;DHT22;37428;53.580;-1.666;2022-10-13T18:56:57;12.10;67.20
33988;DHT22;37428;53.580;-1.666;2022-10-13T18:59:59;12.10;67.50
33988;DHT22;37428;53.580;-1.666;2022-10-13T19:03:01;12.10;67.60
33988;DHT22;37428;53.580;-1.666;2022-10-13T19:06:04;12.10;67.40
33988;DHT22;37428;53.580;-1.666;2022-10-13T19:09:09;12.10;67.40
33988;DHT22;37428;53.580;-1.666;2022-10-13T19:12:13;12.10;67.90
33988;DHT22;37428;53.580;-1.666;2022-10-13T19:15:15;12.10;67.90
33988;DHT22;37428;53.580;-1.666;2022-10-13T19:18:17;12.10;67.70
33988;DHT22;37428;53.580;-1.666;2022-10-13T19:21:20;12.10;67.70